Roundhead, Ohio
Current Conditions -  °F | °C
As of 11:53 PM on Saturday 22 Nov 2014 (Local Time) from KAOH Reporting Station
Overcast Overcast  
Wind Chill: 52°   Ceiling: 3900
Heat Index: 52°   Visibility: 10mi
Dew Point: 37°   Wind: 13mph
Humidity: 57%   Direction: 210°SSW
Pressure: 30.01"   Gusts: NA
Location:  40.56°N, 83.84°W
Report Text: KAOH 230453Z AUTO 21011KT 10SM OVC039 11/03 A3001 RMK AO2 SLP164 T01110028 401171061
Loading
Personal Weather Stations






























Interactive Weather Map New forecast layout! Learn more

10-Day Weather Forecast

Advertisements
Track Severe Weather on mobile